sensor_id;sensor_type;location;lat;lon;timestamp;pressure;altitude;pressure_sealevel;temperature;humidity
61436;BME280;47304;47.456;19.160;2024-02-21T00:00:11;101032.82;;;7.32;69.58
61436;BME280;47304;47.456;19.160;2024-02-21T00:02:39;101030.52;;;7.31;69.49
61436;BME280;47304;47.456;19.160;2024-02-21T00:05:08;101032.24;;;7.30;69.36
61436;BME280;47304;47.456;19.160;2024-02-21T00:07:36;101028.39;;;7.29;69.15
61436;BME280;47304;47.456;19.160;2024-02-21T00:10:05;101024.39;;;7.30;69.09
61436;BME280;47304;47.456;19.160;2024-02-21T00:12:34;101028.25;;;7.30;68.99
61436;BME280;47304;47.456;19.160;2024-02-21T00:15:02;101026.88;;;7.31;68.92
61436;BME280;47304;47.456;19.160;2024-02-21T00:17:31;101028.10;;;7.31;68.82
61436;BME280;47304;47.456;19.160;2024-02-21T00:19:59;101028.64;;;7.33;68.66
61436;BME280;47304;47.456;19.160;2024-02-21T00:22:28;101026.95;;;7.34;68.51
61436;BME280;47304;47.456;19.160;2024-02-21T00:24:57;101020.90;;;7.37;68.26
61436;BME280;47304;47.456;19.160;2024-02-21T00:27:25;101019.52;;;7.37;68.09
61436;BME280;47304;47.456;19.160;2024-02-21T00:29:54;101017.61;;;7.38;68.08
61436;BME280;47304;47.456;19.160;2024-02-21T00:32:22;101017.46;;;7.39;68.05
61436;BME280;47304;47.456;19.160;2024-02-21T00:34:50;101014.14;;;7.39;68.00
61436;BME280;47304;47.456;19.160;2024-02-21T00:37:19;101015.92;;;7.41;67.98
61436;BME280;47304;47.456;19.160;2024-02-21T00:39:47;101015.63;;;7.43;67.95
61436;BME280;47304;47.456;19.160;2024-02-21T00:42:15;101013.05;;;7.44;67.89
61436;BME280;47304;47.456;19.160;2024-02-21T00:44:44;101012.00;;;7.44;67.81
61436;BME280;47304;47.456;19.160;2024-02-21T00:47:12;101009.92;;;7.45;67.83
61436;BME280;47304;47.456;19.160;2024-02-21T00:49:41;101008.73;;;7.45;67.85
61436;BME280;47304;47.456;19.160;2024-02-21T00:52:09;101008.36;;;7.45;67.77
61436;BME280;47304;47.456;19.160;2024-02-21T00:54:38;101014.97;;;7.44;67.77
61436;BME280;47304;47.456;19.160;2024-02-21T00:57:06;101014.78;;;7.44;67.84
61436;BME280;47304;47.456;19.160;2024-02-21T00:59:34;101013.36;;;7.43;67.83
61436;BME280;47304;47.456;19.160;2024-02-21T01:02:03;101017.02;;;7.42;67.89
61436;BME280;47304;47.456;19.160;2024-02-21T01:04:31;101011.08;;;7.41;67.99
61436;BME280;47304;47.456;19.160;2024-02-21T01:07:00;101009.98;;;7.40;68.02
61436;BME280;47304;47.456;19.160;2024-02-21T01:09:29;101005.05;;;7.38;68.14
61436;BME280;47304;47.456;19.160;2024-02-21T01:11:57;101009.04;;;7.36;68.13
61436;BME280;47304;47.456;19.160;2024-02-21T01:14:25;101007.58;;;7.33;68.21
61436;BME280;47304;47.456;19.160;2024-02-21T01:16:53;101010.34;;;7.32;68.30
61436;BME280;47304;47.456;19.160;2024-02-21T01:19:22;101008.23;;;7.31;68.21
61436;BME280;47304;47.456;19.160;2024-02-21T01:21:51;101007.83;;;7.29;68.10
61436;BME280;47304;47.456;19.160;2024-02-21T01:24:19;101003.73;;;7.26;67.56
61436;BME280;47304;47.456;19.160;2024-02-21T01:26:47;101000.40;;;7.24;67.38
61436;BME280;47304;47.456;19.160;2024-02-21T01:29:16;100997.73;;;7.23;67.26
61436;BME280;47304;47.456;19.160;2024-02-21T01:31:44;100998.09;;;7.23;67.06
61436;BME280;47304;47.456;19.160;2024-02-21T01:34:12;100997.90;;;7.22;66.56
61436;BME280;47304;47.456;19.160;2024-02-21T01:36:40;100997.91;;;7.23;66.61
61436;BME280;47304;47.456;19.160;2024-02-21T01:39:09;100994.44;;;7.23;66.46
61436;BME280;47304;47.456;19.160;2024-02-21T01:41:37;100996.67;;;7.22;66.45
61436;BME280;47304;47.456;19.160;2024-02-21T01:44:05;100995.46;;;7.23;66.37
61436;BME280;47304;47.456;19.160;2024-02-21T01:46:33;100997.94;;;7.24;66.32
61436;BME280;47304;47.456;19.160;2024-02-21T01:49:02;100998.09;;;7.23;66.34
61436;BME280;47304;47.456;19.160;2024-02-21T01:51:31;100990.58;;;7.22;66.27
61436;BME280;47304;47.456;19.160;2024-02-21T01:54:00;100996.32;;;7.22;66.28
61436;BME280;47304;47.456;19.160;2024-02-21T01:56:29;100992.67;;;7.22;66.35
61436;BME280;47304;47.456;19.160;2024-02-21T01:58:57;100989.91;;;7.24;66.45
61436;BME280;47304;47.456;19.160;2024-02-21T02:01:26;100989.59;;;7.24;66.33
61436;BME280;47304;47.456;19.160;2024-02-21T02:04:02;100987.98;;;7.23;66.43
61436;BME280;47304;47.456;19.160;2024-02-21T02:06:31;100987.45;;;7.23;66.49
61436;BME280;47304;47.456;19.160;2024-02-21T02:09:00;100983.39;;;7.20;66.54
61436;BME280;47304;47.456;19.160;2024-02-21T02:11:28;100979.30;;;7.16;66.63
61436;BME280;47304;47.456;19.160;2024-02-21T02:13:57;100976.20;;;7.11;66.73
61436;BME280;47304;47.456;19.160;2024-02-21T02:16:26;100978.73;;;7.08;66.88
61436;BME280;47304;47.456;19.160;2024-02-21T02:18:54;100984.92;;;7.04;67.02
61436;BME280;47304;47.456;19.160;2024-02-21T02:21:29;100984.55;;;7.02;67.12
61436;BME280;47304;47.456;19.160;2024-02-21T02:23:57;100984.65;;;6.99;67.30
61436;BME280;47304;47.456;19.160;2024-02-21T02:26:27;100982.15;;;6.97;67.31
61436;BME280;47304;47.456;19.160;2024-02-21T02:28:55;100976.16;;;6.94;67.46
61436;BME280;47304;47.456;19.160;2024-02-21T02:31:23;100976.96;;;6.91;67.62
61436;BME280;47304;47.456;19.160;2024-02-21T02:33:51;100979.52;;;6.89;67.70
61436;BME280;47304;47.456;19.160;2024-02-21T02:36:19;100974.39;;;6.85;67.79
61436;BME280;47304;47.456;19.160;2024-02-21T02:38:48;100974.85;;;6.83;67.87
61436;BME280;47304;47.456;19.160;2024-02-21T02:41:16;100971.14;;;6.81;68.04
61436;BME280;47304;47.456;19.160;2024-02-21T02:43:44;100968.98;;;6.78;68.16
61436;BME280;47304;47.456;19.160;2024-02-21T02:46:13;100971.20;;;6.76;68.13
61436;BME280;47304;47.456;19.160;2024-02-21T02:48:41;100967.66;;;6.75;68.23
61436;BME280;47304;47.456;19.160;2024-02-21T02:51:10;100968.64;;;6.71;68.24
61436;BME280;47304;47.456;19.160;2024-02-21T02:53:38;100976.06;;;6.69;68.43
61436;BME280;47304;47.456;19.160;2024-02-21T02:56:06;100973.40;;;6.67;68.48
61436;BME280;47304;47.456;19.160;2024-02-21T02:58:35;100974.24;;;6.65;68.44
61436;BME280;47304;47.456;19.160;2024-02-21T03:01:03;100967.20;;;6.63;68.62
61436;BME280;47304;47.456;19.160;2024-02-21T03:03:32;100966.45;;;6.60;68.65
61436;BME280;47304;47.456;19.160;2024-02-21T03:06:00;100963.45;;;6.59;68.72
61436;BME280;47304;47.456;19.160;2024-02-21T03:08:28;100962.55;;;6.58;68.75
61436;BME280;47304;47.456;19.160;2024-02-21T03:10:56;100965.11;;;6.55;68.93
61436;BME280;47304;47.456;19.160;2024-02-21T03:13:25;100966.95;;;6.53;68.88
61436;BME280;47304;47.456;19.160;2024-02-21T03:15:53;100960.29;;;6.50;68.99
61436;BME280;47304;47.456;19.160;2024-02-21T03:18:21;100960.91;;;6.48;68.95
61436;BME280;47304;47.456;19.160;2024-02-21T03:20:49;100964.36;;;6.47;68.98
61436;BME280;47304;47.456;19.160;2024-02-21T03:23:18;100965.91;;;6.46;68.98
61436;BME280;47304;47.456;19.160;2024-02-21T03:25:46;100966.61;;;6.45;69.07
61436;BME280;47304;47.456;19.160;2024-02-21T03:28:15;100962.23;;;6.45;69.16
61436;BME280;47304;47.456;19.160;2024-02-21T03:30:44;100964.48;;;6.44;69.00
61436;BME280;47304;47.456;19.160;2024-02-21T03:33:12;100965.15;;;6.43;68.89
61436;BME280;47304;47.456;19.160;2024-02-21T03:35:41;100965.33;;;6.44;68.83
61436;BME280;47304;47.456;19.160;2024-02-21T03:38:09;100965.34;;;6.44;68.73
61436;BME280;47304;47.456;19.160;2024-02-21T03:40:37;100964.28;;;6.44;68.65
61436;BME280;47304;47.456;19.160;2024-02-21T03:43:05;100965.66;;;6.44;68.33
61436;BME280;47304;47.456;19.160;2024-02-21T03:45:34;100960.80;;;6.43;68.28
61436;BME280;47304;47.456;19.160;2024-02-21T03:48:03;100957.86;;;6.44;68.08
61436;BME280;47304;47.456;19.160;2024-02-21T03:50:31;100961.35;;;6.45;68.00
61436;BME280;47304;47.456;19.160;2024-02-21T03:52:59;100960.66;;;6.45;67.96
61436;BME280;47304;47.456;19.160;2024-02-21T03:55:28;100965.73;;;6.46;67.73
61436;BME280;47304;47.456;19.160;2024-02-21T03:57:56;100968.52;;;6.46;67.75
61436;BME280;47304;47.456;19.160;2024-02-21T04:00:25;100966.42;;;6.45;67.77
61436;BME280;47304;47.456;19.160;2024-02-21T04:02:53;100968.98;;;6.44;67.72
61436;BME280;47304;47.456;19.160;2024-02-21T04:05:21;100967.89;;;6.42;67.74
61436;BME280;47304;47.456;19.160;2024-02-21T04:07:50;100967.48;;;6.39;67.70
61436;BME280;47304;47.456;19.160;2024-02-21T04:10:18;100968.61;;;6.36;67.65
61436;BME280;47304;47.456;19.160;2024-02-21T04:12:47;100968.20;;;6.33;67.66
61436;BME280;47304;47.456;19.160;2024-02-21T04:15:15;100967.88;;;6.28;67.54
61436;BME280;47304;47.456;19.160;2024-02-21T04:17:43;100969.70;;;6.24;67.53
61436;BME280;47304;47.456;19.160;2024-02-21T04:20:15;100971.20;;;6.22;67.58
61436;BME280;47304;47.456;19.160;2024-02-21T04:22:44;100967.27;;;6.18;67.64
61436;BME280;47304;47.456;19.160;2024-02-21T04:25:12;100968.40;;;6.15;67.65
61436;BME280;47304;47.456;19.160;2024-02-21T04:27:40;100963.27;;;6.11;67.66
61436;BME280;47304;47.456;19.160;2024-02-21T04:30:10;100963.71;;;6.09;67.85
61436;BME280;47304;47.456;19.160;2024-02-21T04:32:39;100960.86;;;6.06;67.95
61436;BME280;47304;47.456;19.160;2024-02-21T04:35:08;100966.19;;;6.03;68.24
61436;BME280;47304;47.456;19.160;2024-02-21T04:37:36;100964.67;;;5.99;68.57
61436;BME280;47304;47.456;19.160;2024-02-21T04:40:06;100965.57;;;5.95;68.73
61436;BME280;47304;47.456;19.160;2024-02-21T04:42:34;100964.25;;;5.91;68.83
61436;BME280;47304;47.456;19.160;2024-02-21T04:45:03;100960.69;;;5.89;69.13
61436;BME280;47304;47.456;19.160;2024-02-21T04:47:31;100957.45;;;5.85;69.29
61436;BME280;47304;47.456;19.160;2024-02-21T04:49:59;100958.58;;;5.82;69.44
61436;BME280;47304;47.456;19.160;2024-02-21T04:52:28;100958.83;;;5.78;69.90
61436;BME280;47304;47.456;19.160;2024-02-21T04:54:56;100959.27;;;5.75;69.92
61436;BME280;47304;47.456;19.160;2024-02-21T04:57:24;100965.10;;;5.72;70.22
61436;BME280;47304;47.456;19.160;2024-02-21T04:59:53;100964.14;;;5.69;70.34
61436;BME280;47304;47.456;19.160;2024-02-21T05:02:21;100965.09;;;5.66;70.40
61436;BME280;47304;47.456;19.160;2024-02-21T05:04:50;100962.74;;;5.62;70.46
61436;BME280;47304;47.456;19.160;2024-02-21T05:07:18;100968.23;;;5.60;70.60
61436;BME280;47304;47.456;19.160;2024-02-21T05:09:46;100965.91;;;5.58;70.55
61436;BME280;47304;47.456;19.160;2024-02-21T05:12:15;100972.45;;;5.56;70.55
61436;BME280;47304;47.456;19.160;2024-02-21T05:14:43;100971.17;;;5.54;70.75
61436;BME280;47304;47.456;19.160;2024-02-21T05:17:11;100974.61;;;5.53;71.10
61436;BME280;47304;47.456;19.160;2024-02-21T05:19:40;100974.27;;;5.53;71.02
61436;BME280;47304;47.456;19.160;2024-02-21T05:22:08;100976.66;;;5.51;71.06
61436;BME280;47304;47.456;19.160;2024-02-21T05:24:38;100978.17;;;5.50;71.27
61436;BME280;47304;47.456;19.160;2024-02-21T05:27:06;100972.92;;;5.48;71.39
61436;BME280;47304;47.456;19.160;2024-02-21T05:29:35;100973.05;;;5.47;71.62
61436;BME280;47304;47.456;19.160;2024-02-21T05:32:04;100974.05;;;5.45;71.67
61436;BME280;47304;47.456;19.160;2024-02-21T05:34:32;100972.95;;;5.44;71.79
61436;BME280;47304;47.456;19.160;2024-02-21T05:37:00;100977.98;;;5.43;71.77
61436;BME280;47304;47.456;19.160;2024-02-21T05:39:29;100978.66;;;5.42;71.72
61436;BME280;47304;47.456;19.160;2024-02-21T05:41:57;100978.41;;;5.40;71.91
61436;BME280;47304;47.456;19.160;2024-02-21T05:44:25;100975.93;;;5.38;71.87
61436;BME280;47304;47.456;19.160;2024-02-21T05:46:54;100978.00;;;5.38;71.88
61436;BME280;47304;47.456;19.160;2024-02-21T05:49:23;100980.41;;;5.37;71.92
61436;BME280;47304;47.456;19.160;2024-02-21T05:51:51;100982.11;;;5.36;71.90
61436;BME280;47304;47.456;19.160;2024-02-21T05:54:19;100987.85;;;5.36;71.94
61436;BME280;47304;47.456;19.160;2024-02-21T05:56:47;100994.41;;;5.35;72.02
61436;BME280;47304;47.456;19.160;2024-02-21T05:59:16;100995.43;;;5.34;72.05
61436;BME280;47304;47.456;19.160;2024-02-21T06:01:45;100998.55;;;5.34;72.06
61436;BME280;47304;47.456;19.160;2024-02-21T06:04:13;101005.14;;;5.33;72.15
61436;BME280;47304;47.456;19.160;2024-02-21T06:06:41;101001.67;;;5.34;72.25
61436;BME280;47304;47.456;19.160;2024-02-21T06:09:10;101001.89;;;5.36;72.31
61436;BME280;47304;47.456;19.160;2024-02-21T06:11:38;101007.38;;;5.38;72.38
61436;BME280;47304;47.456;19.160;2024-02-21T06:14:07;101003.31;;;5.42;72.32
61436;BME280;47304;47.456;19.160;2024-02-21T06:16:35;100999.74;;;5.45;72.28
61436;BME280;47304;47.456;19.160;2024-02-21T06:19:03;101002.30;;;5.49;72.22
61436;BME280;47304;47.456;19.160;2024-02-21T06:21:31;101004.13;;;5.51;72.14
61436;BME280;47304;47.456;19.160;2024-02-21T06:24:00;101006.34;;;5.56;72.10
61436;BME280;47304;47.456;19.160;2024-02-21T06:26:28;101004.24;;;5.61;72.09
61436;BME280;47304;47.456;19.160;2024-02-21T06:28:56;101004.92;;;5.67;71.90
61436;BME280;47304;47.456;19.160;2024-02-21T06:31:24;100999.31;;;5.71;71.75
61436;BME280;47304;47.456;19.160;2024-02-21T06:33:52;101003.59;;;5.75;71.75
61436;BME280;47304;47.456;19.160;2024-02-21T06:36:20;101005.29;;;5.79;71.71
61436;BME280;47304;47.456;19.160;2024-02-21T06:38:49;101004.22;;;5.85;71.68
61436;BME280;47304;47.456;19.160;2024-02-21T06:41:18;101004.34;;;5.89;71.48
61436;BME280;47304;47.456;19.160;2024-02-21T06:43:46;101008.69;;;5.94;71.52
61436;BME280;47304;47.456;19.160;2024-02-21T06:46:24;101011.45;;;5.99;71.48
61436;BME280;47304;47.456;19.160;2024-02-21T06:48:52;101012.90;;;6.07;71.33
61436;BME280;47304;47.456;19.160;2024-02-21T06:51:20;101018.15;;;6.15;71.16
61436;BME280;47304;47.456;19.160;2024-02-21T06:53:49;101018.18;;;6.22;71.03
61436;BME280;47304;47.456;19.160;2024-02-21T06:56:17;101019.45;;;6.30;70.86
61436;BME280;47304;47.456;19.160;2024-02-21T06:58:45;101017.59;;;6.38;70.61
61436;BME280;47304;47.456;19.160;2024-02-21T07:01:14;101017.48;;;6.47;70.40
61436;BME280;47304;47.456;19.160;2024-02-21T07:03:42;101022.19;;;6.55;70.14
61436;BME280;47304;47.456;19.160;2024-02-21T07:06:12;101019.27;;;6.62;69.86
61436;BME280;47304;47.456;19.160;2024-02-21T07:08:41;101021.20;;;6.70;69.66
61436;BME280;47304;47.456;19.160;2024-02-21T07:11:09;101023.17;;;6.79;69.32
61436;BME280;47304;47.456;19.160;2024-02-21T07:13:37;101025.09;;;6.87;68.94
61436;BME280;47304;47.456;19.160;2024-02-21T07:16:07;101026.35;;;6.95;68.74
61436;BME280;47304;47.456;19.160;2024-02-21T07:18:35;101029.38;;;7.05;68.41
61436;BME280;47304;47.456;19.160;2024-02-21T07:21:04;101032.17;;;7.12;67.99
61436;BME280;47304;47.456;19.160;2024-02-21T07:23:32;101030.12;;;7.21;68.03
61436;BME280;47304;47.456;19.160;2024-02-21T07:26:00;101031.39;;;7.31;67.55
61436;BME280;47304;47.456;19.160;2024-02-21T07:28:29;101040.29;;;7.39;67.13
61436;BME280;47304;47.456;19.160;2024-02-21T07:31:00;101039.96;;;7.47;66.90
61436;BME280;47304;47.456;19.160;2024-02-21T07:33:28;101040.14;;;7.55;66.57
61436;BME280;47304;47.456;19.160;2024-02-21T07:35:56;101039.44;;;7.62;66.35
61436;BME280;47304;47.456;19.160;2024-02-21T07:38:25;101040.67;;;7.71;66.16
61436;BME280;47304;47.456;19.160;2024-02-21T07:40:53;101046.80;;;7.80;65.92
61436;BME280;47304;47.456;19.160;2024-02-21T07:43:22;101047.15;;;7.89;65.42
61436;BME280;47304;47.456;19.160;2024-02-21T07:45:50;101050.45;;;7.95;65.05
61436;BME280;47304;47.456;19.160;2024-02-21T07:48:18;101040.80;;;8.02;64.81
61436;BME280;47304;47.456;19.160;2024-02-21T07:50:46;101043.73;;;8.09;64.62
61436;BME280;47304;47.456;19.160;2024-02-21T07:53:16;101048.44;;;8.17;64.07
61436;BME280;47304;47.456;19.160;2024-02-21T07:55:45;101050.48;;;8.23;63.81
61436;BME280;47304;47.456;19.160;2024-02-21T07:58:13;101051.45;;;8.28;63.60
61436;BME280;47304;47.456;19.160;2024-02-21T08:00:42;101051.16;;;8.32;63.57
61436;BME280;47304;47.456;19.160;2024-02-21T08:03:10;101051.80;;;8.37;63.29
61436;BME280;47304;47.456;19.160;2024-02-21T08:05:38;101048.95;;;8.43;63.17
61436;BME280;47304;47.456;19.160;2024-02-21T08:08:07;101041.99;;;8.53;63.28
61436;BME280;47304;47.456;19.160;2024-02-21T08:10:35;101044.66;;;8.65;63.06
61436;BME280;47304;47.456;19.160;2024-02-21T08:13:04;101040.68;;;8.76;62.80
61436;BME280;47304;47.456;19.160;2024-02-21T08:15:32;101041.34;;;8.84;62.55
61436;BME280;47304;47.456;19.160;2024-02-21T08:18:00;101037.13;;;8.93;62.41
61436;BME280;47304;47.456;19.160;2024-02-21T08:20:29;101036.52;;;9.00;62.15
61436;BME280;47304;47.456;19.160;2024-02-21T08:22:57;101032.45;;;9.07;61.85
61436;BME280;47304;47.456;19.160;2024-02-21T08:25:27;101028.32;;;9.11;61.35
61436;BME280;47304;47.456;19.160;2024-02-21T08:27:57;101028.40;;;9.16;61.34
61436;BME280;47304;47.456;19.160;2024-02-21T08:30:27;101024.47;;;9.22;60.89
61436;BME280;47304;47.456;19.160;2024-02-21T08:32:55;101023.66;;;9.25;60.79
61436;BME280;47304;47.456;19.160;2024-02-21T08:35:25;101022.50;;;9.29;60.62
61436;BME280;47304;47.456;19.160;2024-02-21T08:37:54;101024.00;;;9.36;60.55
61436;BME280;47304;47.456;19.160;2024-02-21T08:40:22;101024.10;;;9.43;60.16
61436;BME280;47304;47.456;19.160;2024-02-21T08:42:51;101024.52;;;9.48;59.68
61436;BME280;47304;47.456;19.160;2024-02-21T08:45:22;101024.96;;;9.55;59.72
61436;BME280;47304;47.456;19.160;2024-02-21T08:47:50;101024.63;;;9.68;59.28
61436;BME280;47304;47.456;19.160;2024-02-21T08:50:19;101022.84;;;9.92;59.06
61436;BME280;47304;47.456;19.160;2024-02-21T08:52:47;101020.79;;;10.41;58.41
61436;BME280;47304;47.456;19.160;2024-02-21T08:55:16;101020.00;;;11.06;57.02
61436;BME280;47304;47.456;19.160;2024-02-21T08:57:44;101011.52;;;11.49;56.23
61436;BME280;47304;47.456;19.160;2024-02-21T09:00:17;101014.36;;;11.89;55.50
61436;BME280;47304;47.456;19.160;2024-02-21T09:02:46;101017.64;;;12.10;54.89
61436;BME280;47304;47.456;19.160;2024-02-21T09:05:15;101016.33;;;12.45;54.10
61436;BME280;47304;47.456;19.160;2024-02-21T09:07:43;101010.13;;;13.59;53.00
61436;BME280;47304;47.456;19.160;2024-02-21T09:10:12;101009.46;;;15.49;50.03
61436;BME280;47304;47.456;19.160;2024-02-21T09:12:40;101006.45;;;17.27;46.99
61436;BME280;47304;47.456;19.160;2024-02-21T09:15:09;101006.27;;;19.15;44.93
61436;BME280;47304;47.456;19.160;2024-02-21T09:17:38;101004.15;;;20.77;40.57
61436;BME280;47304;47.456;19.160;2024-02-21T09:20:08;101002.86;;;21.67;38.69
61436;BME280;47304;47.456;19.160;2024-02-21T09:22:36;100997.17;;;22.95;35.65
61436;BME280;47304;47.456;19.160;2024-02-21T09:25:06;100992.61;;;23.83;33.99
61436;BME280;47304;47.456;19.160;2024-02-21T09:27:35;100992.77;;;24.78;32.18
61436;BME280;47304;47.456;19.160;2024-02-21T09:30:03;100986.12;;;25.63;31.34
61436;BME280;47304;47.456;19.160;2024-02-21T09:32:31;100988.64;;;26.64;29.56
61436;BME280;47304;47.456;19.160;2024-02-21T09:35:00;100985.26;;;27.54;28.76
61436;BME280;47304;47.456;19.160;2024-02-21T09:37:28;100993.11;;;28.30;26.54
61436;BME280;47304;47.456;19.160;2024-02-21T09:39:56;100986.89;;;29.05;25.90
61436;BME280;47304;47.456;19.160;2024-02-21T09:42:34;100986.23;;;29.72;25.00
61436;BME280;47304;47.456;19.160;2024-02-21T09:45:15;100985.09;;;30.65;24.39
61436;BME280;47304;47.456;19.160;2024-02-21T09:48:07;100990.88;;;31.13;22.94
61436;BME280;47304;47.456;19.160;2024-02-21T09:50:44;100994.48;;;30.70;22.46
61436;BME280;47304;47.456;19.160;2024-02-21T09:53:14;100989.63;;;31.33;22.30
61436;BME280;47304;47.456;19.160;2024-02-21T09:55:44;100992.34;;;31.48;21.70
61436;BME280;47304;47.456;19.160;2024-02-21T09:58:12;100991.26;;;32.00;20.71
61436;BME280;47304;47.456;19.160;2024-02-21T10:00:41;100988.85;;;32.58;20.83
61436;BME280;47304;47.456;19.160;2024-02-21T10:03:09;100986.48;;;33.58;20.40
61436;BME280;47304;47.456;19.160;2024-02-21T10:05:38;100983.35;;;34.33;19.20
61436;BME280;47304;47.456;19.160;2024-02-21T10:08:07;100980.98;;;34.68;18.50
61436;BME280;47304;47.456;19.160;2024-02-21T10:10:46;100978.11;;;35.26;18.52
61436;BME280;47304;47.456;19.160;2024-02-21T10:13:26;100973.63;;;35.51;17.79
61436;BME280;47304;47.456;19.160;2024-02-21T10:16:06;100969.83;;;36.17;18.05
61436;BME280;47304;47.456;19.160;2024-02-21T10:18:33;100968.38;;;37.22;16.99
61436;BME280;47304;47.456;19.160;2024-02-21T10:21:08;100963.78;;;37.43;16.21
61436;BME280;47304;47.456;19.160;2024-02-21T10:23:46;100958.73;;;37.82;16.60
61436;BME280;47304;47.456;19.160;2024-02-21T10:26:16;100952.66;;;38.00;16.05
61436;BME280;47304;47.456;19.160;2024-02-21T10:28:44;100951.20;;;38.34;16.06
61436;BME280;47304;47.456;19.160;2024-02-21T10:31:22;100951.75;;;39.28;15.72
61436;BME280;47304;47.456;19.160;2024-02-21T10:33:57;100949.23;;;39.65;15.14
61436;BME280;47304;47.456;19.160;2024-02-21T10:36:25;100950.06;;;39.69;14.74
61436;BME280;47304;47.456;19.160;2024-02-21T10:38:54;100949.08;;;37.27;15.25
61436;BME280;47304;47.456;19.160;2024-02-21T10:41:23;100941.42;;;33.59;16.86
61436;BME280;47304;47.456;19.160;2024-02-21T10:43:53;100939.03;;;30.77;18.77
61436;BME280;47304;47.456;19.160;2024-02-21T10:46:23;100936.05;;;28.96;20.45
61436;BME280;47304;47.456;19.160;2024-02-21T10:49:12;100924.80;;;29.41;20.36
61436;BME280;47304;47.456;19.160;2024-02-21T10:51:44;100925.20;;;27.48;21.58
61436;BME280;47304;47.456;19.160;2024-02-21T10:54:25;100923.57;;;25.51;23.16
61436;BME280;47304;47.456;19.160;2024-02-21T10:56:58;100914.89;;;25.66;23.49
61436;BME280;47304;47.456;19.160;2024-02-21T10:59:29;100916.27;;;24.60;24.25
61436;BME280;47304;47.456;19.160;2024-02-21T11:01:58;100911.29;;;23.42;25.18
61436;BME280;47304;47.456;19.160;2024-02-21T11:04:27;100909.35;;;22.68;26.01
61436;BME280;47304;47.456;19.160;2024-02-21T11:06:56;100904.89;;;22.11;26.77
61436;BME280;47304;47.456;19.160;2024-02-21T11:09:32;100902.54;;;21.22;27.96
61436;BME280;47304;47.456;19.160;2024-02-21T11:12:02;100898.85;;;20.48;29.29
61436;BME280;47304;47.456;19.160;2024-02-21T11:14:30;100902.70;;;19.93;30.01
61436;BME280;47304;47.456;19.160;2024-02-21T11:16:59;100901.09;;;19.19;31.07
61436;BME280;47304;47.456;19.160;2024-02-21T11:19:28;100898.69;;;18.24;32.12
61436;BME280;47304;47.456;19.160;2024-02-21T11:21:57;100893.13;;;17.39;33.44
61436;BME280;47304;47.456;19.160;2024-02-21T11:24:29;100890.16;;;16.89;34.44
61436;BME280;47304;47.456;19.160;2024-02-21T11:27:08;100886.15;;;16.65;35.12
61436;BME280;47304;47.456;19.160;2024-02-21T11:29:44;100885.77;;;17.16;34.92
61436;BME280;47304;47.456;19.160;2024-02-21T11:32:13;100881.23;;;17.98;34.03
61436;BME280;47304;47.456;19.160;2024-02-21T11:34:42;100880.86;;;18.07;33.55
61436;BME280;47304;47.456;19.160;2024-02-21T11:37:20;100875.52;;;18.16;33.71
61436;BME280;47304;47.456;19.160;2024-02-21T11:39:49;100870.89;;;18.38;33.36
61436;BME280;47304;47.456;19.160;2024-02-21T11:42:17;100870.09;;;18.42;33.53
61436;BME280;47304;47.456;19.160;2024-02-21T11:44:45;100867.13;;;18.48;33.46
61436;BME280;47304;47.456;19.160;2024-02-21T11:47:15;100867.38;;;18.38;33.80
61436;BME280;47304;47.456;19.160;2024-02-21T11:49:46;100869.03;;;18.13;34.15
61436;BME280;47304;47.456;19.160;2024-02-21T11:52:23;100870.14;;;17.62;34.01
61436;BME280;47304;47.456;19.160;2024-02-21T11:54:52;100867.69;;;16.79;34.99
61436;BME280;47304;47.456;19.160;2024-02-21T11:57:23;100868.71;;;15.93;36.18
61436;BME280;47304;47.456;19.160;2024-02-21T11:59:52;100866.73;;;15.30;37.38
61436;BME280;47304;47.456;19.160;2024-02-21T12:02:20;100870.63;;;14.78;38.26
61436;BME280;47304;47.456;19.160;2024-02-21T12:04:48;100870.78;;;14.39;39.11
61436;BME280;47304;47.456;19.160;2024-02-21T12:07:17;100871.03;;;14.05;39.81
61436;BME280;47304;47.456;19.160;2024-02-21T12:09:46;100865.02;;;13.80;40.18
61436;BME280;47304;47.456;19.160;2024-02-21T12:12:14;100860.59;;;13.54;40.80
61436;BME280;47304;47.456;19.160;2024-02-21T12:14:53;100860.14;;;13.29;41.50
61436;BME280;47304;47.456;19.160;2024-02-21T12:17:22;100855.84;;;12.97;41.96
61436;BME280;47304;47.456;19.160;2024-02-21T12:19:53;100853.24;;;12.77;42.74
61436;BME280;47304;47.456;19.160;2024-02-21T12:22:21;100854.31;;;12.69;42.94
61436;BME280;47304;47.456;19.160;2024-02-21T12:24:50;100851.69;;;12.61;42.98
61436;BME280;47304;47.456;19.160;2024-02-21T12:27:18;100851.52;;;12.56;43.19
61436;BME280;47304;47.456;19.160;2024-02-21T12:29:46;100848.35;;;12.51;43.30
61436;BME280;47304;47.456;19.160;2024-02-21T12:32:14;100842.56;;;12.45;43.73
61436;BME280;47304;47.456;19.160;2024-02-21T12:34:43;100842.56;;;12.40;43.91
61436;BME280;47304;47.456;19.160;2024-02-21T12:37:11;100840.64;;;12.31;43.89
61436;BME280;47304;47.456;19.160;2024-02-21T12:39:40;100846.60;;;12.23;43.89
61436;BME280;47304;47.456;19.160;2024-02-21T12:42:08;100844.31;;;12.23;43.73
61436;BME280;47304;47.456;19.160;2024-02-21T12:44:37;100837.83;;;12.32;43.53
61436;BME280;47304;47.456;19.160;2024-02-21T12:47:05;100836.58;;;12.36;43.42
61436;BME280;47304;47.456;19.160;2024-02-21T12:49:33;100826.05;;;12.39;43.65
61436;BME280;47304;47.456;19.160;2024-02-21T12:52:01;100821.13;;;12.46;43.80
61436;BME280;47304;47.456;19.160;2024-02-21T12:54:30;100817.60;;;12.54;44.28
61436;BME280;47304;47.456;19.160;2024-02-21T12:56:58;100813.38;;;12.57;43.84